Dansville, Michigan
Current Conditions -  °F | °C
As of 1:54 PM on Tuesday 27 Jan 2015 (Local Time) from KTEW Reporting Station
Scattered Clouds Scattered Clouds  
Wind Chill: 15°   Ceiling: Unl
Heat Index: 24°   Visibility: 10mi
Dew Point: 13°   Wind: 8mph
Humidity: 62%   Direction: 30°NNE
Pressure: 30.12"   Gusts: NA
Location:  42.56°N, 84.3°W
Report Text: KTEW 271854Z AUTO 03007KT 10SM SCT028 M04/M11 A3012 RMK AO2 T10451107
Loading
Personal Weather Stations






























Interactive Weather Map New forecast layout! Learn more

10-Day Weather Forecast

Advertisements
Track Severe Weather on mobile